Aktuální počasí v Česku a ve světě - METAR

Seznam meteostanic umístěných nejčasteji na letišti v ČR a ve světě

Vyhledat místa podle abecedy:
A B C D E F G H I J K L M N O P Q R S T U V W X Y Z

Filtrovat:

ID stanice:
a/nebo
Název místa (fulltext):
 
Místo (ID)Naposledy načteno 
Brno - Tuřany (Brno/Tu) 07.12.2022 09:00 UTC Zobrazit data
Místo: Brno - Tuřany
Teplota: 3 °C (pocitová: -2.1 °C)
Vítr: 2 m/s z(e) 250°
Počasí: skoro zataženo
Dohlednost: 35 km
Zákl. oblačnosti: 1/8 660 m;7/8 1500 m
Vlhkost: 81%
Červená - Opava (Cervena/uL) 07.12.2022 06:00 UTC Zobrazit data
Místo: Červená - Opava
Teplota: -1 °C (pocitová: -11.2 °C)
Vítr: 6 m/s z(e) 270°
Počasí: sněží
Dohlednost: 1500 m
Zákl. oblačnosti: 8/8 60 m
Vlhkost: 100%
České Budějovice (C.Budej/po) 07.12.2022 09:00 UTC Zobrazit data
Místo: České Budějovice
Teplota: 3 °C (pocitová: -3.3 °C)
Vítr: 3 m/s z(e) 220°
Počasí: skorojasno
Dohlednost: 35 km
Zákl. oblačnosti: 1/8 1500 m
Vlhkost: 70%
Cheb (Cheb) 07.12.2022 09:00 UTC Zobrazit data
Místo: Cheb
Teplota: 1 °C (pocitová: -7 °C)
Vítr: 4 m/s z(e) 250°
Počasí: sněží
Dohlednost: 6 km
Zákl. oblačnosti: 8/8 210 m
Vlhkost: 93%
Chotusice - Čáslav (Caslav) 07.12.2022 09:00 UTC Zobrazit data
Místo: Chotusice - Čáslav
Teplota: 3 °C (pocitová: -5 °C)
Vítr: 5 m/s z(e) 240°
Počasí: oblačno
Dohlednost: 20 km
Zákl. oblačnosti: 4/8 1050 m
Vlhkost: 75%
Churáňov (Churanov) 07.12.2022 09:00 UTC Zobrazit data
Místo: Churáňov
Teplota: -4 °C (pocitová: -15.4 °C)
Vítr: 6 m/s z(e) 230°
Počasí: sněží
Dohlednost: 6 km
Zákl. oblačnosti: 1/8 210 m;3/8 1170 m
Vlhkost: 93%
Doksany - Litoměřice (Doksany) 07.12.2022 09:00 UTC Zobrazit data
Místo: Doksany - Litoměřice
Teplota: 3 °C (pocitová: -4.3 °C)
Vítr: 4 m/s z(e) 250°
Počasí: skoro zataženo
Dohlednost: 40 km
Zákl. oblačnosti: 2/8 870 m;7/8 1380 m
Vlhkost: 75%
Dukovany (Dukovany) 07.12.2022 09:00 UTC Zobrazit data
Místo: Dukovany
Teplota: 2 °C (pocitová: -6.9 °C)
Vítr: 6 m/s z(e) 270°
Počasí: skoro zataženo
Dohlednost: 26 km
Zákl. oblačnosti: 6/8 1500 m
Vlhkost: 87%
Holešov (Holesov) 07.12.2022 09:00 UTC Zobrazit data
Místo: Holešov
Teplota: 3 °C (pocitová: -4.3 °C)
Vítr: 4 m/s z(e) 220°
Počasí: skoro zataženo
Dohlednost: 30 km
Zákl. oblačnosti: 7/8 720 m
Vlhkost: 81%
Kadaň - Tušimice (Tusimice) 07.12.2022 09:00 UTC Zobrazit data
Místo: Kadaň - Tušimice
Teplota: 2 °C (pocitová: -5.6 °C)
Vítr: 4 m/s z(e) 280°
Počasí: skoro zataženo
Dohlednost: 15 km
Zákl. oblačnosti: 5/8 840 m;7/8 2100 m
Vlhkost: 87%
Karlovy Vary (K.Vary) 07.12.2022 09:00 UTC Zobrazit data
Místo: Karlovy Vary
Teplota: 0 °C (pocitová: -7.3 °C)
Vítr: 3 m/s z(e) 250°
Počasí: sněží
Dohlednost: 2500 m
Zákl. oblačnosti: 8/8 150 m
Vlhkost: 93%
Kocelovice (Kocelovice) 07.12.2022 09:00 UTC Zobrazit data
Místo: Kocelovice
Teplota: 1 °C (pocitová: -8.9 °C)
Vítr: 7 m/s z(e) 270°
Počasí: skoro zataženo
Dohlednost: 24 km
Zákl. oblačnosti: 5/8 1200 m
Vlhkost: 81%
Kopisty (Kopisty) 07.12.2022 09:00 UTC Zobrazit data
Místo: Kopisty
Teplota: 2 °C (pocitová: 14.4 °C)
Vítr: 0 m/s z(e) 0°
Počasí: déšť
Dohlednost: 11 km
Zákl. oblačnosti: 7/8 750 m
Vlhkost: 93%
Kostelní Myslová (K.Myslova) 07.12.2022 09:00 UTC Zobrazit data
Místo: Kostelní Myslová
Teplota: 0 °C (pocitová: -8.4 °C)
Vítr: 4 m/s z(e) 290°
Počasí: skoro zataženo
Dohlednost: 35 km
Zákl. oblačnosti: 5/8 1440 m
Vlhkost: 87%
Křešín - Kramolín (Kramolin) 07.12.2022 09:00 UTC Zobrazit data
Místo: Křešín - Kramolín
Teplota: 0 °C (pocitová: -9.7 °C)
Vítr: 6 m/s z(e) 240°
Počasí: oblačno
Dohlednost: 35 km
Zákl. oblačnosti: 1/8 990 m;3/8 7500 m
Vlhkost: 87%
Kuchařovice - Znojmo (Kucharovic) 07.12.2022 09:00 UTC Zobrazit data
Místo: Kuchařovice - Znojmo
Teplota: 3 °C (pocitová: -5.5 °C)
Vítr: 6 m/s z(e) 280°
Počasí: skoro zataženo
Dohlednost: 45 km
Zákl. oblačnosti: 5/8 1500 m
Vlhkost: 81%
Liberec (Liberec) 07.12.2022 09:00 UTC Zobrazit data
Místo: Liberec
Teplota: 0 °C (pocitová: -8.4 °C)
Vítr: 4 m/s z(e) 190°
Počasí: sněží
Dohlednost: 9 km
Zákl. oblačnosti: 8/8 450 m
Vlhkost: 87%
Luká (Luka) 07.12.2022 09:00 UTC Zobrazit data
Místo: Luká
Teplota: 2 °C (pocitová: -6.4 °C)
Vítr: 5 m/s z(e) 270°
Počasí: skoro zataženo
Dohlednost: 25 km
Zákl. oblačnosti: 1/8 300 m;7/8 1440 m
Vlhkost: 81%
Lysá Hora (Lysa Hora) 04.12.2022 19:00 UTC Zobrazit data
Místo: Lysá Hora
Teplota: 0 °C (pocitová: -12.6 °C)
Vítr: 13 m/s z(e) 160°
Počasí: skoro zataženo
Dohlednost: 25 km
Zákl. oblačnosti: 1/8 30 m;6/8 6300 m
Vlhkost: 93%
Milešovka (Milesovka) 07.12.2022 07:00 UTC Zobrazit data
Místo: Milešovka
Teplota: -3 °C (pocitová: -14 °C)
Vítr: 6 m/s z(e) 260°
Počasí: skoro zataženo
Dohlednost: 40 km
Zákl. oblačnosti: 1/8 90 m;5/8 300 m
Vlhkost: 100%
Mošnov (Ostrava/Mo) 07.12.2022 09:00 UTC Zobrazit data
Místo: Mošnov
Teplota: 3 °C (pocitová: -5 °C)
Vítr: 5 m/s z(e) 200°
Počasí: skoro zataženo
Dohlednost: 25 km
Zákl. oblačnosti: 5/8 990 m;7/8 2100 m
Vlhkost: 87%
Náměšť nad Oslavou (Namest n/O) 07.12.2022 09:00 UTC Zobrazit data
Místo: Náměšť nad Oslavou
Teplota: 2 °C (pocitová: -6.4 °C)
Vítr: 5 m/s z(e) 250°
Počasí: skoro zataženo
Dohlednost: 30 km
Zákl. oblačnosti: 2/8 570 m;5/8 5700 m
Vlhkost: 81%
Pardubice (Pardubice) 07.12.2022 09:00 UTC Zobrazit data
Místo: Pardubice
Teplota: 3 °C (pocitová: -5 °C)
Vítr: 5 m/s z(e) 260°
Počasí: oblačno
Dohlednost: 20 km
Zákl. oblačnosti: 3/8 840 m
Vlhkost: 81%
Pec pod Sněžkou (Pec p.Snez) 07.12.2022 09:00 UTC Zobrazit data
Místo: Pec pod Sněžkou
Teplota: -2 °C (pocitová: -12 °C)
Vítr: 5 m/s z(e) 210°
Počasí: sněží
Dohlednost: 15 km
Zákl. oblačnosti: 8/8 300 m
Vlhkost: 86%
Plzeň město - Mikulka (Plzen/Miku) 07.12.2022 09:00 UTC Zobrazit data
Místo: Plzeň město - Mikulka
Teplota: 1 °C (pocitová: -8.3 °C)
Vítr: 6 m/s z(e) 220°
Počasí: skoro zataženo
Dohlednost: 20 km
Zákl. oblačnosti: 7/8 630 m
Vlhkost: 87%
Polom (Polom) 07.12.2022 09:00 UTC Zobrazit data
Místo: Polom
Teplota: -2 °C (pocitová: -8.5 °C)
Vítr: 2 m/s z(e) 220°
Počasí: zataženo
Dohlednost: 2000 m
Zákl. oblačnosti: 8/8 90 m
Vlhkost: 100%
Praha - Karlov (Praha/Kar) 07.12.2022 09:00 UTC Zobrazit data
Místo: Praha - Karlov
Teplota: 2 °C (pocitová: -6.9 °C)
Vítr: 6 m/s z(e) 250°
Počasí: skoro zataženo
Dohlednost: 35 km
Zákl. oblačnosti: 1/8 450 m;7/8 1170 m
Vlhkost: 81%
Praha - Kbely (Praha/Kbe) 07.12.2022 09:00 UTC Zobrazit data
Místo: Praha - Kbely
Teplota: 2 °C (pocitová: -7.5 °C)
Vítr: 7 m/s z(e) 230°
Počasí: sněží
Dohlednost: 20 km
Zákl. oblačnosti: 4/8 810 m;7/8 1020 m
Vlhkost: 81%
Praha - Libuš (Praha/Lib) 07.12.2022 09:00 UTC Zobrazit data
Místo: Praha - Libuš
Teplota: 2 °C (pocitová: -4.7 °C)
Vítr: 3 m/s z(e) 230°
Počasí: sněží
Dohlednost: 28 km
Zákl. oblačnosti: 1/8 990 m;5/8 1200 m
Vlhkost: 81%
Praha - Ruzyně (Praha/Ru) 07.12.2022 09:00 UTC Zobrazit data
Místo: Praha - Ruzyně
Teplota: 1 °C (pocitová: -8.9 °C)
Vítr: 7 m/s z(e) 240°
Počasí: sněží
Dohlednost: 30 km
Zákl. oblačnosti: 7/8 1380 m
Vlhkost: 87%
Přibyslav (Pribyslav) 07.12.2022 09:00 UTC Zobrazit data
Místo: Přibyslav
Teplota: 0 °C (pocitová: -9.7 °C)
Vítr: 6 m/s z(e) 270°
Počasí: oblačno
Dohlednost: 30 km
Zákl. oblačnosti: 2/8 690 m
Vlhkost: 87%
Přimda (Primda) 07.12.2022 09:00 UTC Zobrazit data
Místo: Přimda
Teplota: -1 °C (pocitová: -10.6 °C)
Vítr: 5 m/s z(e) 270°
Počasí: zataženo
Dohlednost: 1000 m
Zákl. oblačnosti: 8/8 30 m
Vlhkost: 93%
Šerák (Serak) 07.12.2022 05:00 UTC Zobrazit data
Místo: Šerák
Teplota: -5 °C (pocitová: -16.8 °C)
Vítr: 6 m/s z(e) 280°
Počasí: sněží
Dohlednost: 300 m
Zákl. oblačnosti: 8/8 30 m
Vlhkost: 100%
Svratouch (Svratouch) 07.12.2022 09:00 UTC Zobrazit data
Místo: Svratouch
Teplota: -2 °C (pocitová: -12.6 °C)
Vítr: 6 m/s z(e) 280°
Počasí: skoro zataženo
Dohlednost: 15 km
Zákl. oblačnosti: 6/8 180 m
Vlhkost: 93%
Temelín (Temelin) 07.12.2022 09:00 UTC Zobrazit data
Místo: Temelín
Teplota: 1 °C (pocitová: -6 °C)
Vítr: 3 m/s z(e) 260°
Počasí: skoro zataženo
Dohlednost: 55 km
Zákl. oblačnosti: 6/8 1500 m
Vlhkost: 75%
Ústí nad Labem - Kočkov (Usti n/L) 07.12.2022 09:00 UTC Zobrazit data
Místo: Ústí nad Labem - Kočkov
Teplota: 0 °C (pocitová: -7.3 °C)
Vítr: 3 m/s z(e) 270°
Počasí: sněží
Dohlednost: 4500 m
Zákl. oblačnosti: 8/8 210 m
Vlhkost: 93%
Ústí nad Orlicí (Usti n/O) 07.12.2022 09:00 UTC Zobrazit data
Místo: Ústí nad Orlicí
Teplota: 1 °C (pocitová: -8.3 °C)
Vítr: 6 m/s z(e) 260°
Počasí: skoro zataženo
Dohlednost: 22 km
Zákl. oblačnosti: 4/8 330 m
Vlhkost: 87%
Aalborg (EKYT) 07.12.2022 07:51 UTC Zobrazit METAR
EKYT 070751Z AUTO 01007KT 9999 -SN BKN007/// BKN029/// OVC083/// M00/M00 Q1008 REFZRA
Aarhus (EKAH) 07.12.2022 08:50 UTC Zobrazit METAR
EKAH 070850Z AUTO 28003KT 9999 BKN004/// OVC040/// 00/M00 Q1007
Abu Dhabi (OMAA) 07.12.2022 09:00 UTC Zobrazit METAR
OMAA 070900Z 22007KT 180V270 CAVOK 30/11 Q1015 BECMG 33010KT
Abuja (DNAA) 07.12.2022 09:00 UTC Zobrazit METAR
DNAA 070900Z 06004KT 2500 HZ NSC 32/14 Q1013 BECMG 3000
Accra (DGAA) 07.12.2022 09:00 UTC Zobrazit METAR
DGAA 070900Z 27010KT 230V290 CAVOK 29/25 Q1012 NOSIG
Addis Abeba (HAAB) 07.12.2022 09:00 UTC Zobrazit METAR
HAAB 070900Z 10010KT CAVOK 21/04 Q1025 NOSIG
Agana (PGUM) 07.12.2022 08:54 UTC Zobrazit METAR
PGUM 070854Z 08010KT 10SM FEW020 FEW026 SCT036 28/26 A2982 RMK AO2 SLP089 60001 T02830256 53010 $
Ahe Island (NTHE) Zatím nenačteno  
Akureyri (BIAR) 07.12.2022 09:00 UTC Zobrazit METAR
BIAR 070900Z 32005KT 280V010 9999 -SN FEW025 BKN023 OVC043 M01/M02 Q1038
Almaty (UAAA) Zatím nenačteno  
Amman (OJAM) 07.12.2022 09:00 UTC Zobrazit METAR
OJAM 070900Z 00000KT 5000 HZ NSC 16/08 Q1021 NOSIG
Amsterdam (EHAM) 07.12.2022 03:55 UTC Zobrazit METAR
EHAM 070355Z 28002KT 9999 FEW024 02/02 Q1017 TEMPO -SHRA FEW022CB
Antananarivo (FMMI) 07.12.2022 09:00 UTC Zobrazit METAR
FMMI 070900Z 12009KT 090V180 9999 BKN020 26/13 Q1020 NOSIG
1 2 3 ... 9 Další
Reklama


Newslettter

Počasí na Váš email

Každý den ráno pošleme předpověď
Emaily chodí ráno a bez reklamy



Odhlásit newsletter

Krásné fotografie přírody - (nejen) tapety na pozadí do počítače

Článek
Obrázky na téma slunečno
25. srpna 2022 05:03
Článek
Obrázky květin
5. června 2022 12:12
Článek
Obrázky východu slunce
1. června 2022 15:08

Přidejte si Počasí Slunečno na svůj Facebook
Facebook Počasí Slunečno.cz
Aplikace pro Windows 10/11 nebo chytré mobilní telefony
Stáhněte si aplikaci Slunečno.cz na Microsoft Store Stáhněte si aplikaci Slunečno.cz na Google Play